createdAt,value
2019-01-15T00:00:40.000Z,8.10
2019-01-15T00:03:27.979Z,7.87
2019-01-15T00:06:16.708Z,10.73
2019-01-15T00:09:07.897Z,8.70
2019-01-15T00:11:56.107Z,19.30
2019-01-15T00:14:44.223Z,13.17
2019-01-15T00:17:32.875Z,13.10
2019-01-15T00:20:20.400Z,9.93
2019-01-15T00:23:08.636Z,11.70
2019-01-15T00:25:57.395Z,13.33
2019-01-15T00:28:45.455Z,10.33
2019-01-15T00:31:34.197Z,14.43
2019-01-15T00:34:22.257Z,13.27
2019-01-15T00:37:09.951Z,11.43
2019-01-15T00:39:58.842Z,15.93
2019-01-15T00:42:47.195Z,20.60
2019-01-15T00:45:35.554Z,14.10
2019-01-15T00:48:23.839Z,12.73
2019-01-15T00:51:11.511Z,16.33
2019-01-15T00:54:00.656Z,10.43
2019-01-15T00:56:49.349Z,16.93
2019-01-15T00:59:37.600Z,11.03
2019-01-15T01:02:25.247Z,11.00
2019-01-15T01:05:15.397Z,14.33
2019-01-15T01:08:04.635Z,12.17
2019-01-15T01:10:53.632Z,10.60
2019-01-15T01:13:41.847Z,13.37
2019-01-15T01:16:29.917Z,12.60
2019-01-15T01:19:17.688Z,11.43
2019-01-15T01:22:06.439Z,12.30
2019-01-15T01:24:54.812Z,13.30
2019-01-15T01:27:43.439Z,12.20
2019-01-15T01:30:31.443Z,13.30
2019-01-15T01:33:19.135Z,12.43
2019-01-15T01:36:07.146Z,14.70
2019-01-15T01:38:55.691Z,12.13
2019-01-15T01:41:43.923Z,10.90
2019-01-15T01:44:31.831Z,16.10
2019-01-15T01:47:19.635Z,20.10
2019-01-15T01:50:08.529Z,13.67
2019-01-15T01:52:56.302Z,14.30
2019-01-15T01:55:44.991Z,14.60
2019-01-15T01:58:33.421Z,19.80
2019-01-15T02:01:21.655Z,13.97
2019-01-15T02:04:10.138Z,12.07
2019-01-15T02:06:58.174Z,12.13
2019-01-15T02:09:46.651Z,17.97
2019-01-15T02:12:36.966Z,17.63
2019-01-15T02:15:25.690Z,15.47
2019-01-15T02:18:13.910Z,13.17
2019-01-15T02:21:01.963Z,15.90
2019-01-15T02:23:50.259Z,17.30
2019-01-15T02:26:38.710Z,16.50
2019-01-15T02:29:26.812Z,13.77
2019-01-15T02:32:15.055Z,18.73
2019-01-15T02:35:03.782Z,15.90
2019-01-15T02:37:51.735Z,17.70
2019-01-15T02:40:40.015Z,21.20
2019-01-15T02:43:28.490Z,15.57
2019-01-15T02:46:16.846Z,17.63
2019-01-15T02:49:05.152Z,16.93
2019-01-15T02:51:53.180Z,21.10
2019-01-15T02:54:41.417Z,21.23
2019-01-15T02:57:29.383Z,21.57
2019-01-15T03:00:25.299Z,22.37
2019-01-15T03:03:13.050Z,14.30
2019-01-15T03:06:01.346Z,19.20
2019-01-15T03:08:49.866Z,17.80
2019-01-15T03:11:38.523Z,18.80
2019-01-15T03:14:26.878Z,17.40
2019-01-15T03:17:15.058Z,23.50
2019-01-15T03:20:04.818Z,19.73
2019-01-15T03:22:53.026Z,17.10
2019-01-15T03:25:41.532Z,18.30
2019-01-15T03:28:29.998Z,15.50
2019-01-15T03:31:17.952Z,21.70
2019-01-15T03:34:06.478Z,25.10
2019-01-15T03:36:54.590Z,21.47
2019-01-15T03:39:43.179Z,17.00
2019-01-15T03:42:31.316Z,18.53
2019-01-15T03:45:18.967Z,20.87
2019-01-15T03:48:07.084Z,15.27
2019-01-15T03:50:55.594Z,19.70
2019-01-15T03:53:43.344Z,20.93
2019-01-15T03:56:31.733Z,18.53
2019-01-15T03:59:19.669Z,20.00
2019-01-15T04:02:08.179Z,21.07
2019-01-15T04:04:57.120Z,20.43
2019-01-15T04:07:45.923Z,20.83
2019-01-15T04:10:34.612Z,16.17
2019-01-15T04:13:22.708Z,19.60
2019-01-15T04:16:11.166Z,19.20
2019-01-15T04:18:59.619Z,19.43
2019-01-15T04:21:47.894Z,18.97
2019-01-15T04:24:36.080Z,22.83
2019-01-15T04:27:24.547Z,22.77
2019-01-15T04:30:15.624Z,20.93
2019-01-15T04:33:03.887Z,22.57
2019-01-15T04:35:52.106Z,20.63
2019-01-15T04:38:40.356Z,15.23
2019-01-15T04:41:28.369Z,17.73
2019-01-15T04:44:15.911Z,22.40
2019-01-15T04:47:04.347Z,19.67
2019-01-15T04:49:53.451Z,20.63
2019-01-15T04:52:44.318Z,25.87
2019-01-15T04:55:33.603Z,20.93
2019-01-15T04:58:21.762Z,23.87
2019-01-15T05:01:09.853Z,21.20
2019-01-15T05:03:57.821Z,23.20
2019-01-15T05:06:46.258Z,24.17
2019-01-15T05:09:34.490Z,23.27
2019-01-15T05:12:22.467Z,24.57
2019-01-15T05:15:13.074Z,28.60
2019-01-15T05:18:02.245Z,20.37
2019-01-15T05:20:50.652Z,21.30
2019-01-15T05:23:38.824Z,22.70
2019-01-15T05:26:28.276Z,26.40
2019-01-15T05:29:16.289Z,16.13
2019-01-15T05:32:04.138Z,21.00
2019-01-15T05:34:52.183Z,27.03
2019-01-15T05:37:39.927Z,23.13
2019-01-15T05:40:28.419Z,18.77
2019-01-15T05:43:16.728Z,23.93
2019-01-15T05:46:05.378Z,17.00
2019-01-15T05:48:53.761Z,23.07
2019-01-15T05:51:43.071Z,26.50
2019-01-15T05:54:31.571Z,22.77
2019-01-15T05:57:19.622Z,20.40
2019-01-15T06:00:09.057Z,22.50
2019-01-15T06:02:56.563Z,26.93
2019-01-15T06:05:44.843Z,21.87
2019-01-15T06:08:33.401Z,22.13
2019-01-15T06:11:21.914Z,24.53
2019-01-15T06:14:10.466Z,27.30
2019-01-15T06:16:58.755Z,26.03
2019-01-15T06:19:47.258Z,29.57
2019-01-15T06:22:35.847Z,24.60
2019-01-15T06:25:24.547Z,27.20
2019-01-15T06:28:12.743Z,26.83
2019-01-15T06:31:01.074Z,25.80
2019-01-15T06:33:49.424Z,25.33
2019-01-15T06:36:37.868Z,29.23
2019-01-15T06:39:26.246Z,26.07
2019-01-15T06:42:14.316Z,24.23
2019-01-15T06:45:02.303Z,23.43
2019-01-15T06:47:49.871Z,20.73
2019-01-15T06:50:37.683Z,28.47
2019-01-15T06:53:25.574Z,26.60
2019-01-15T06:56:14.180Z,26.67
2019-01-15T06:59:02.802Z,26.23
2019-01-15T07:01:51.010Z,28.70
2019-01-15T07:04:43.858Z,27.00
2019-01-15T07:07:28.722Z,28.10
2019-01-15T07:10:19.766Z,27.77
2019-01-15T07:13:08.983Z,24.17
2019-01-15T07:15:57.656Z,29.43
2019-01-15T07:18:45.343Z,30.13
2019-01-15T07:21:33.288Z,27.60
2019-01-15T07:24:21.683Z,29.70
2019-01-15T07:27:09.858Z,25.87
2019-01-15T07:29:58.141Z,29.70
2019-01-15T07:32:46.287Z,26.93
2019-01-15T07:35:34.196Z,24.30
2019-01-15T07:38:22.995Z,28.03
2019-01-15T07:41:10.895Z,25.20
2019-01-15T07:44:04.340Z,29.40
2019-01-15T07:46:48.971Z,27.53
2019-01-15T07:49:37.472Z,28.90
2019-01-15T07:52:25.179Z,35.60
2019-01-15T07:55:14.808Z,31.77
2019-01-15T07:58:02.386Z,30.07
2019-01-15T08:00:51.145Z,31.00
2019-01-15T08:03:39.458Z,36.20
2019-01-15T08:06:27.937Z,26.53
2019-01-15T08:09:15.975Z,29.73
2019-01-15T08:12:03.647Z,30.77
2019-01-15T08:14:51.921Z,32.03
2019-01-15T08:17:40.338Z,29.70
2019-01-15T08:20:28.519Z,33.97
2019-01-15T08:23:16.883Z,31.30
2019-01-15T08:26:05.407Z,34.00
2019-01-15T08:28:53.811Z,28.17
2019-01-15T08:31:42.262Z,27.67
2019-01-15T08:34:30.440Z,31.27
2019-01-15T08:37:18.686Z,33.27
2019-01-15T08:40:08.803Z,28.60
2019-01-15T08:42:57.039Z,32.50
2019-01-15T08:45:45.526Z,28.83
2019-01-15T08:48:34.855Z,32.43
2019-01-15T08:51:23.151Z,38.20
2019-01-15T08:54:11.702Z,30.37
2019-01-15T08:57:00.134Z,28.03
2019-01-15T08:59:48.772Z,24.73
2019-01-15T09:02:37.374Z,31.30
2019-01-15T09:05:25.558Z,34.00
2019-01-15T09:08:14.334Z,33.90
2019-01-15T09:11:02.978Z,29.20
2019-01-15T09:13:51.411Z,33.00
2019-01-15T09:16:40.086Z,25.30
2019-01-15T09:19:28.283Z,26.33
2019-01-15T09:22:16.651Z,25.57
2019-01-15T09:25:04.524Z,37.10
2019-01-15T09:27:53.086Z,29.27
2019-01-15T09:30:41.944Z,26.27
2019-01-15T09:33:30.235Z,31.07
2019-01-15T09:36:18.530Z,34.90
2019-01-15T09:39:08.643Z,29.53
2019-01-15T09:41:57.343Z,29.60
2019-01-15T09:44:45.697Z,28.83
2019-01-15T09:47:34.240Z,36.33
2019-01-15T09:50:22.750Z,28.93
2019-01-15T09:53:11.597Z,29.83
2019-01-15T09:55:59.698Z,34.17
2019-01-15T09:58:47.247Z,35.90
2019-01-15T10:01:35.231Z,33.70
2019-01-15T10:04:23.231Z,30.30
2019-01-15T10:07:11.538Z,32.57
2019-01-15T10:09:59.635Z,37.30
2019-01-15T10:12:48.211Z,39.73
2019-01-15T10:15:36.206Z,34.30
2019-01-15T10:18:25.046Z,36.27
2019-01-15T10:21:12.905Z,43.87
2019-01-15T10:24:01.078Z,33.90
2019-01-15T10:26:49.140Z,35.97
2019-01-15T10:29:37.386Z,33.70
2019-01-15T10:32:52.600Z,34.87
2019-01-15T10:35:59.039Z,31.87
2019-01-15T10:38:47.018Z,28.50
2019-01-15T10:41:35.652Z,38.17
2019-01-15T10:44:23.945Z,32.70
2019-01-15T10:47:12.291Z,32.70
2019-01-15T10:50:00.607Z,29.40
2019-01-15T10:52:48.562Z,31.20
2019-01-15T10:55:37.067Z,34.00
2019-01-15T10:58:25.845Z,25.67
2019-01-15T11:01:14.075Z,37.97
2019-01-15T11:04:01.598Z,31.60
2019-01-15T11:06:49.831Z,26.63
2019-01-15T11:09:38.064Z,26.33
2019-01-15T11:12:26.392Z,28.10
2019-01-15T11:15:14.815Z,29.90
2019-01-15T11:18:02.391Z,24.43
2019-01-15T11:20:50.935Z,24.67
2019-01-15T11:23:39.451Z,24.87
2019-01-15T11:26:27.563Z,26.70
2019-01-15T11:29:15.807Z,21.77
2019-01-15T11:32:03.723Z,25.50
2019-01-15T11:34:52.403Z,22.00
2019-01-15T11:37:40.978Z,30.77
2019-01-15T11:40:29.791Z,29.47
2019-01-15T11:43:18.287Z,25.90
2019-01-15T11:46:06.277Z,26.77
2019-01-15T11:48:54.463Z,28.07
2019-01-15T11:51:42.744Z,20.67
2019-01-15T11:54:30.771Z,22.73
2019-01-15T11:57:19.185Z,22.33
2019-01-15T12:00:14.622Z,21.27
2019-01-15T12:03:07.836Z,21.23
2019-01-15T12:06:33.208Z,21.63
2019-01-15T12:09:39.227Z,23.83
2019-01-15T12:12:49.012Z,18.30
2019-01-15T12:15:59.482Z,23.27
2019-01-15T12:19:17.151Z,20.70
2019-01-15T12:22:27.244Z,21.50
2019-01-15T12:25:31.629Z,18.83
2019-01-15T12:28:47.603Z,22.73
2019-01-15T12:32:00.586Z,27.27
2019-01-15T12:35:11.047Z,24.00
2019-01-15T12:38:27.214Z,23.10
2019-01-15T12:41:34.719Z,23.20
2019-01-15T12:44:39.798Z,20.00
2019-01-15T12:47:46.135Z,29.60
2019-01-15T12:50:41.907Z,23.77
2019-01-15T12:53:38.975Z,20.90
2019-01-15T12:56:41.523Z,25.47
2019-01-15T12:59:57.737Z,17.10
2019-01-15T13:03:14.360Z,22.87
2019-01-15T13:06:20.278Z,22.90
2019-01-15T13:09:39.670Z,24.10
2019-01-15T13:12:36.108Z,20.13
2019-01-15T13:15:34.688Z,28.27
2019-01-15T13:18:46.518Z,21.87
2019-01-15T13:21:42.278Z,23.60
2019-01-15T13:24:58.802Z,19.00
2019-01-15T13:28:14.626Z,23.10
2019-01-15T13:31:13.167Z,18.17
2019-01-15T13:34:21.296Z,24.07
2019-01-15T13:37:47.064Z,19.83
2019-01-15T13:41:12.136Z,17.93
2019-01-15T13:44:14.121Z,21.80
2019-01-15T13:47:18.628Z,19.17
2019-01-15T13:50:25.456Z,15.20
2019-01-15T13:53:32.781Z,16.67
2019-01-15T13:56:42.767Z,19.67
2019-01-15T13:59:57.476Z,18.10
2019-01-15T14:03:08.284Z,19.90
2019-01-15T14:06:14.947Z,20.03
2019-01-15T14:09:23.348Z,20.40
2019-01-15T14:12:33.749Z,16.40
2019-01-15T14:15:39.667Z,18.13
2019-01-15T14:18:46.266Z,23.23
2019-01-15T14:22:08.624Z,15.57
2019-01-15T14:25:09.079Z,14.73
2019-01-15T14:28:10.253Z,17.00
2019-01-15T14:31:11.060Z,23.40
2019-01-15T14:34:19.200Z,16.23
2019-01-15T14:37:20.475Z,15.63
2019-01-15T14:40:29.898Z,13.63
2019-01-15T14:43:35.667Z,18.43
2019-01-15T14:46:53.914Z,16.20
2019-01-15T14:49:59.739Z,17.77
2019-01-15T14:53:06.225Z,15.13
2019-01-15T14:56:16.273Z,13.33
2019-01-15T14:59:17.747Z,19.20
2019-01-15T15:02:28.396Z,17.47
2019-01-15T15:05:44.259Z,12.70
2019-01-15T15:08:54.109Z,12.30
2019-01-15T15:11:58.430Z,11.43
2019-01-15T15:14:58.167Z,13.27
2019-01-15T15:18:00.107Z,16.33
2019-01-15T15:21:19.698Z,15.73
2019-01-15T15:24:30.030Z,15.03
2019-01-15T15:27:29.994Z,12.20
2019-01-15T15:30:29.407Z,14.30
2019-01-15T15:33:39.526Z,16.13
2019-01-15T15:36:45.151Z,19.17
2019-01-15T15:39:51.719Z,13.97
2019-01-15T15:43:02.860Z,14.77
2019-01-15T15:46:11.167Z,12.77
2019-01-15T15:49:13.022Z,16.23
2019-01-15T15:52:23.849Z,15.07
2019-01-15T15:55:21.966Z,17.77
2019-01-15T15:58:35.186Z,12.67
2019-01-15T16:01:46.163Z,15.03
2019-01-15T16:04:53.611Z,13.57
2019-01-15T16:08:00.479Z,15.00
2019-01-15T16:11:05.930Z,17.63
2019-01-15T16:14:02.818Z,14.20
2019-01-15T16:17:07.130Z,12.93
2019-01-15T16:20:05.122Z,12.87
2019-01-15T16:23:24.222Z,16.77
2019-01-15T16:26:22.974Z,16.00
2019-01-15T16:29:21.995Z,11.00
2019-01-15T16:32:29.111Z,16.73
2019-01-15T16:35:49.511Z,12.50
2019-01-15T16:38:59.420Z,15.87
2019-01-15T16:42:02.836Z,18.40
2019-01-15T16:45:08.888Z,16.23
2019-01-15T16:48:22.360Z,11.67
2019-01-15T16:51:44.665Z,11.80
2019-01-15T16:55:04.144Z,18.37
2019-01-15T16:58:18.184Z,10.77
2019-01-15T17:01:23.103Z,17.10
2019-01-15T17:04:23.788Z,15.20
2019-01-15T17:07:24.540Z,14.20
2019-01-15T17:10:41.319Z,12.93
2019-01-15T17:13:54.211Z,14.53
2019-01-15T17:17:01.804Z,13.27
2019-01-15T17:20:10.491Z,13.10
2019-01-15T17:23:12.864Z,15.43
2019-01-15T17:26:26.140Z,15.07
2019-01-15T17:29:28.200Z,14.90
2019-01-15T17:32:42.412Z,15.90
2019-01-15T17:35:55.824Z,15.43
2019-01-15T17:39:01.787Z,13.10
2019-01-15T17:42:07.687Z,11.60
2019-01-15T17:45:12.224Z,15.20
2019-01-15T17:48:28.399Z,14.00
2019-01-15T17:51:38.816Z,12.80
2019-01-15T17:54:49.945Z,13.50
2019-01-15T17:58:12.396Z,14.87
2019-01-15T18:01:31.536Z,14.53
2019-01-15T18:04:37.394Z,16.93
2019-01-15T18:07:52.076Z,14.90
2019-01-15T18:10:58.367Z,12.60
2019-01-15T18:14:05.600Z,11.60
2019-01-15T18:17:05.945Z,12.27
2019-01-15T18:20:05.604Z,14.10
2019-01-15T18:23:12.066Z,17.00
2019-01-15T18:26:25.315Z,13.97
2019-01-15T18:29:24.251Z,19.63
2019-01-15T18:32:29.783Z,13.60
2019-01-15T18:35:35.996Z,16.77
2019-01-15T18:38:41.644Z,16.40
2019-01-15T18:41:41.236Z,19.57
2019-01-15T18:44:47.690Z,15.07
2019-01-15T18:47:53.351Z,17.03
2019-01-15T18:51:08.376Z,21.37
2019-01-15T18:54:07.488Z,14.97
2019-01-15T18:57:13.171Z,15.33
2019-01-15T19:00:18.956Z,14.30
2019-01-15T19:03:26.812Z,17.80
2019-01-15T19:06:41.606Z,19.87
2019-01-15T19:09:50.193Z,15.53
2019-01-15T19:12:54.539Z,16.70
2019-01-15T19:16:10.067Z,14.50
2019-01-15T19:19:23.286Z,19.30
2019-01-15T19:22:20.296Z,12.00
2019-01-15T19:25:26.216Z,16.23
2019-01-15T19:28:37.827Z,20.37
2019-01-15T19:31:42.111Z,19.07
2019-01-15T19:34:48.219Z,23.47
2019-01-15T19:38:04.411Z,17.00
2019-01-15T19:41:11.824Z,25.00
2019-01-15T19:44:21.930Z,21.17
2019-01-15T19:47:27.627Z,20.30
2019-01-15T19:50:33.387Z,21.93
2019-01-15T19:53:39.437Z,17.40
2019-01-15T19:56:52.616Z,19.77
2019-01-15T20:00:13.108Z,16.50
2019-01-15T20:03:18.612Z,16.47
2019-01-15T20:06:24.359Z,20.93
2019-01-15T20:09:30.167Z,15.10
2019-01-15T20:12:48.604Z,16.17
2019-01-15T20:16:08.281Z,15.60
2019-01-15T20:19:14.280Z,15.10
2019-01-15T20:22:24.228Z,14.83
2019-01-15T20:25:29.976Z,14.13
2019-01-15T20:28:55.023Z,14.83
2019-01-15T20:31:57.007Z,15.17
2019-01-15T20:35:02.092Z,14.20
2019-01-15T20:38:00.767Z,14.80
2019-01-15T20:41:02.464Z,13.67
2019-01-15T20:44:12.089Z,15.17
2019-01-15T20:47:17.056Z,14.43
2019-01-15T20:50:25.839Z,17.00
2019-01-15T20:53:31.981Z,15.20
2019-01-15T20:56:37.904Z,14.33
2019-01-15T20:59:48.628Z,17.60
2019-01-15T21:02:54.335Z,17.13
2019-01-15T21:06:00.504Z,16.63
2019-01-15T21:09:14.836Z,19.40
2019-01-15T21:12:20.776Z,16.17
2019-01-15T21:15:38.423Z,15.90
2019-01-15T21:18:35.635Z,15.80
2019-01-15T21:21:48.168Z,14.53
2019-01-15T21:24:54.567Z,20.10
2019-01-15T21:28:00.163Z,14.40
2019-01-15T21:31:06.363Z,15.50
2019-01-15T21:34:14.195Z,18.10
2019-01-15T21:37:27.300Z,14.90
2019-01-15T21:40:37.513Z,17.40
2019-01-15T21:43:59.311Z,17.77
2019-01-15T21:47:07.312Z,16.33
2019-01-15T21:50:15.380Z,19.30
2019-01-15T21:53:41.004Z,16.37
2019-01-15T21:56:41.491Z,14.50
2019-01-15T21:59:45.911Z,14.17
2019-01-15T22:02:42.316Z,20.30
2019-01-15T22:05:53.776Z,15.40
2019-01-15T22:09:03.166Z,15.17
2019-01-15T22:12:08.955Z,14.40
2019-01-15T22:15:19.098Z,23.80
2019-01-15T22:18:24.779Z,12.97
2019-01-15T22:21:26.542Z,16.10
2019-01-15T22:24:32.620Z,16.43
2019-01-15T22:27:30.746Z,15.10
2019-01-15T22:30:35.484Z,14.97
2019-01-15T22:33:43.631Z,15.60
2019-01-15T22:37:06.446Z,12.90
2019-01-15T22:40:11.618Z,12.87
2019-01-15T22:43:09.516Z,15.67
2019-01-15T22:46:15.687Z,14.63
2019-01-15T22:49:22.350Z,14.10
2019-01-15T22:52:29.765Z,14.30
2019-01-15T22:55:36.656Z,12.77
2019-01-15T22:58:32.719Z,15.00
2019-01-15T23:01:36.422Z,15.93
2019-01-15T23:04:40.486Z,17.00
2019-01-15T23:07:48.426Z,16.47
2019-01-15T23:10:50.807Z,18.23
2019-01-15T23:13:56.423Z,20.50
2019-01-15T23:16:55.339Z,19.73
2019-01-15T23:20:06.105Z,16.63
2019-01-15T23:23:08.626Z,19.17
2019-01-15T23:26:32.509Z,14.13
2019-01-15T23:29:34.586Z,19.20
2019-01-15T23:32:40.362Z,17.83
2019-01-15T23:35:51.238Z,17.33
2019-01-15T23:38:58.643Z,15.63
2019-01-15T23:42:22.987Z,18.10
2019-01-15T23:45:44.983Z,19.73
2019-01-15T23:48:50.530Z,18.60
2019-01-15T23:51:56.315Z,19.00
2019-01-15T23:55:17.759Z,18.10
2019-01-15T23:58:16.595Z,17.47
